»·PEaware :: AAL438 KSAN-KPHX

AAL438 :: KSAN-KPHX

FLIGHT INFORMATION

Flight Status: Arrived
Operator:
American Airlines
More flights by this operator :: More flights under this callsign
Pilot: Anonymous 7386 (7386)
Aircraft: BOEING 737-800
(B738)
More flights by this aircraft type
Origin: KSAN San Diego Intl-Lindbergh
United States
Destination: KPHX Phoenix Sky Harbor Intl
United States
More flights between these airports :: More routes between these airports
Route: +ZZOOO2 IPL J18 BZA DCT HOGGZ HYDRR1
File this flight plan on PilotEdge
Remarks:
Altitude:
(Current/Filed)
29,000ft
Speed:
(Current/Filed)
458kts
Departed: 06-Jun-20 08:47 AM
Arrived: 06-Jun-20 09:33 AM
Distance/Time
Traveled:
264nm/0:46
Distance/Time
To Go:
Arrived

Flight Plot

Page will automatically refresh every two minutes.

Flight plan parsing failed; only flown route is shown


Map Options




Map Legend


Flown Route
Filed Route
Departure Airport
Arrival Airport
Navaid (VOR, NDB)
Fix

Horizontal Profiles

Position Reports

Time Latitude Longitude Heading Altitude Ground
Speed
06-Jun-20 08:10 32.733750 -117.203509 269 25ft 0kts
06-Jun-20 08:11 32.733750 -117.203509 269 25ft 0kts
06-Jun-20 08:12 32.733750 -117.203509 269 25ft 0kts
06-Jun-20 08:13 32.733750 -117.203509 269 25ft 0kts
06-Jun-20 08:14 32.733750 -117.203509 269 25ft 0kts
06-Jun-20 08:15 32.733750 -117.203509 269 25ft 0kts
06-Jun-20 08:16 32.733750 -117.203509 269 25ft 0kts
06-Jun-20 08:17 32.733750 -117.203509 269 25ft 0kts
06-Jun-20 08:18 32.733750 -117.203509 269 25ft 0kts
06-Jun-20 08:19 32.733750 -117.203509 270 25ft 0kts
06-Jun-20 08:20 32.733750 -117.203509 270 25ft 0kts
06-Jun-20 08:21 32.733750 -117.203509 270 25ft 0kts
06-Jun-20 08:22 32.733750 -117.203509 270 25ft 0kts
06-Jun-20 08:23 32.733750 -117.203509 270 25ft 0kts
06-Jun-20 08:24 32.733750 -117.203509 270 25ft 0kts
06-Jun-20 08:25 32.733750 -117.203509 270 25ft 0kts
06-Jun-20 08:26 32.733750 -117.203509 270 25ft 0kts
06-Jun-20 08:27 32.733750 -117.203509 270 25ft 0kts
06-Jun-20 08:28 32.733750 -117.203509 270 25ft 0kts
06-Jun-20 08:29 32.733750 -117.203509 270 25ft 0kts
06-Jun-20 08:30 32.733750 -117.203509 270 25ft 0kts
06-Jun-20 08:31 32.733750 -117.203509 270 25ft 0kts
06-Jun-20 08:32 32.733750 -117.203509 270 25ft 0kts
06-Jun-20 08:33 32.733750 -117.203325 269 25ft 2kts
06-Jun-20 08:34 32.733564 -117.202698 338 25ft 1kts
06-Jun-20 08:35 32.733481 -117.202669 344 25ft 0kts
06-Jun-20 08:36 32.733481 -117.202669 344 25ft 0kts
06-Jun-20 08:37 32.734070 -117.202690 11 25ft 7kts
06-Jun-20 08:38 32.734963 -117.199739 106 25ft 15kts
06-Jun-20 08:39 32.733831 -117.195046 106 25ft 13kts
06-Jun-20 08:40 32.732628 -117.190100 106 25ft 15kts
06-Jun-20 08:41 32.731469 -117.185294 106 25ft 14kts
06-Jun-20 08:42 32.730232 -117.180230 106 25ft 15kts
06-Jun-20 08:43 32.729491 -117.176838 77 25ft 0kts
06-Jun-20 08:44 32.729492 -117.176832 77 25ft 0kts
06-Jun-20 08:45 32.730245 -117.176030 287 25ft 4kts
06-Jun-20 08:47 32.739887 -117.214638 286 1549ft 166kts
06-Jun-20 08:48 32.756188 -117.282403 284 3984ft 238kts
06-Jun-20 08:49 32.711517 -117.329007 167 7322ft 285kts
06-Jun-20 08:50 32.648866 -117.264369 129 10417ft 321kts
06-Jun-20 08:51 32.623107 -117.151396 95 12581ft 376kts
06-Jun-20 08:52 32.611608 -117.023355 96 15515ft 399kts
06-Jun-20 08:53 32.608736 -116.887325 77 18199ft 421kts
06-Jun-20 08:54 32.631628 -116.747327 81 20758ft 438kts
06-Jun-20 08:55 32.646975 -116.599741 82 23041ft 455kts
06-Jun-20 08:56 32.662176 -116.446122 82 25096ft 471kts
06-Jun-20 08:57 32.676973 -116.293662 83 26848ft 486kts
06-Jun-20 08:58 32.692456 -116.132018 83 28502ft 499kts
06-Jun-20 08:59 32.707906 -115.965244 83 28952ft 517kts
06-Jun-20 09:00 32.723296 -115.794981 83 28916ft 514kts
06-Jun-20 09:01 32.738744 -115.625244 83 28917ft 516kts
06-Jun-20 09:01 32.749285 -115.483764 88 28917ft 515kts
06-Jun-20 09:03 32.754180 -115.289566 89 28917ft 514kts
06-Jun-20 09:04 32.758248 -115.119176 89 28645ft 519kts
06-Jun-20 09:04 32.761328 -114.979376 89 27424ft 500kts
06-Jun-20 09:06 32.764915 -114.787786 89 25872ft 491kts
06-Jun-20 09:06 32.767453 -114.654338 89 24955ft 480kts
06-Jun-20 09:08 32.770191 -114.467961 89 24926ft 483kts
06-Jun-20 09:08 32.771895 -114.338030 90 24925ft 483kts
06-Jun-20 09:09 32.774045 -114.175949 90 24928ft 483kts
06-Jun-20 09:10 32.781954 -114.016843 83 24934ft 482kts
06-Jun-20 09:11 32.798052 -113.862766 82 24936ft 455kts
06-Jun-20 09:12 32.822748 -113.713944 66 24935ft 458kts
06-Jun-20 09:13 32.888858 -113.591737 44 23590ft 427kts
06-Jun-20 09:14 32.966794 -113.486422 43 21799ft 430kts
06-Jun-20 09:15 33.043895 -113.382194 43 19950ft 408kts
06-Jun-20 09:16 33.116059 -113.284479 44 18192ft 390kts
06-Jun-20 09:17 33.188155 -113.186944 44 16847ft 395kts
06-Jun-20 09:18 33.254403 -113.086604 61 15058ft 370kts
06-Jun-20 09:19 33.276271 -112.969569 88 13838ft 360kts
06-Jun-20 09:20 33.279906 -112.852299 88 12363ft 338kts
06-Jun-20 09:21 33.308086 -112.748054 66 10961ft 324kts
06-Jun-20 09:22 33.343012 -112.655360 66 9759ft 287kts
06-Jun-20 09:23 33.375616 -112.570065 66 8665ft 276kts
06-Jun-20 09:24 33.405370 -112.491640 68 8015ft 248kts
06-Jun-20 09:25 33.428074 -112.413432 86 7014ft 240kts
06-Jun-20 09:26 33.428707 -112.332244 92 6006ft 238kts
06-Jun-20 09:27 33.433947 -112.251522 79 4883ft 249kts
06-Jun-20 09:28 33.441094 -112.173373 95 3209ft 223kts
06-Jun-20 09:29 33.441115 -112.110393 93 2496ft 164kts
06-Jun-20 09:30 33.440810 -112.061767 89 1718ft 142kts
06-Jun-20 09:31 33.440849 -112.015244 90 1120ft 103kts
06-Jun-20 09:32 33.439885 -112.004674 179 1119ft 3kts
06-Jun-20 09:33 33.439049 -112.004145 92 1119ft 7kts
06-Jun-20 09:34 33.438720 -112.002042 173 1119ft 4kts
06-Jun-20 09:35 33.438363 -112.001998 174 1119ft 0kts

Navigation Log

Ident Type
Flight plan parsing failed, navigation log unavailable